createdAt,value
2017-07-16T00:00:33.702Z,12.99
2017-07-16T00:01:29.932Z,13.05
2017-07-16T00:02:26.180Z,13.05
2017-07-16T00:03:22.447Z,13.05
2017-07-16T00:04:18.691Z,13.05
2017-07-16T00:05:14.940Z,13.05
2017-07-16T00:06:11.175Z,12.99
2017-07-16T00:07:07.430Z,13.05
2017-07-16T00:08:03.695Z,12.99
2017-07-16T00:08:59.928Z,13.05
2017-07-16T00:09:56.167Z,12.99
2017-07-16T00:10:52.441Z,12.99
2017-07-16T00:11:49.218Z,13.04
2017-07-16T00:12:45.470Z,13.05
2017-07-16T00:13:41.729Z,13.05
2017-07-16T00:14:37.971Z,12.99
2017-07-16T00:15:34.250Z,13.05
2017-07-16T00:16:30.675Z,13.04
2017-07-16T00:17:26.935Z,12.99
2017-07-16T00:18:23.230Z,12.99
2017-07-16T00:19:19.475Z,13.04
2017-07-16T00:20:15.712Z,12.98
2017-07-16T00:21:12.170Z,12.99
2017-07-16T00:22:08.995Z,13.04
2017-07-16T00:23:05.265Z,12.99
2017-07-16T00:24:01.506Z,12.99
2017-07-16T00:24:57.847Z,12.98
2017-07-16T00:25:54.095Z,12.99
2017-07-16T00:26:50.338Z,12.99
2017-07-16T00:27:46.587Z,12.98
2017-07-16T00:28:42.837Z,12.98
2017-07-16T00:29:39.075Z,12.99
2017-07-16T00:30:35.310Z,12.99
2017-07-16T00:31:31.555Z,12.98
2017-07-16T00:32:27.930Z,12.99
2017-07-16T00:33:24.242Z,12.98
2017-07-16T00:34:20.483Z,12.98
2017-07-16T00:35:16.707Z,13.04
2017-07-16T00:36:12.955Z,13.05
2017-07-16T00:37:09.194Z,13.04
2017-07-16T00:38:05.502Z,13.04
2017-07-16T00:39:01.754Z,12.98
2017-07-16T00:39:58.120Z,12.99
2017-07-16T00:40:54.366Z,12.98
2017-07-16T00:41:50.598Z,12.98
2017-07-16T00:42:46.835Z,12.98
2017-07-16T00:43:43.095Z,13.04
2017-07-16T00:44:39.332Z,12.98
2017-07-16T00:45:35.598Z,12.98
2017-07-16T00:46:31.833Z,12.98
2017-07-16T00:47:28.079Z,12.98
2017-07-16T00:48:24.363Z,12.98
2017-07-16T00:49:20.630Z,12.98
2017-07-16T00:50:16.891Z,12.98
2017-07-16T00:51:13.122Z,12.98
2017-07-16T00:52:09.362Z,13.04
2017-07-16T00:53:05.599Z,13.02
2017-07-16T00:54:01.857Z,13.04
2017-07-16T00:54:58.106Z,12.98
2017-07-16T00:55:54.359Z,12.98
2017-07-16T00:56:50.605Z,13.04
2017-07-16T00:57:46.851Z,13.04
2017-07-16T00:58:43.095Z,12.98
2017-07-16T00:59:39.371Z,12.99
2017-07-16T01:00:35.614Z,13.04
2017-07-16T01:01:31.915Z,13.04
2017-07-16T01:02:28.152Z,12.98
2017-07-16T01:03:24.387Z,12.98
2017-07-16T01:04:20.659Z,13.04
2017-07-16T01:05:16.899Z,12.98
2017-07-16T01:06:13.123Z,13.04
2017-07-16T01:07:09.371Z,13.04
2017-07-16T01:08:07.581Z,13.04
2017-07-16T01:09:03.851Z,13.04
2017-07-16T01:10:00.351Z,13.04
2017-07-16T01:10:56.591Z,13.04
2017-07-16T01:11:52.838Z,13.04
2017-07-16T01:12:49.079Z,13.04
2017-07-16T01:13:45.326Z,13.04
2017-07-16T01:14:41.638Z,13.02
2017-07-16T01:15:37.879Z,12.98
2017-07-16T01:16:34.160Z,12.98
2017-07-16T01:17:30.679Z,13.02
2017-07-16T01:18:26.919Z,13.04
2017-07-16T01:19:23.163Z,13.04
2017-07-16T01:20:19.432Z,13.04
2017-07-16T01:21:15.675Z,12.98
2017-07-16T01:22:11.935Z,13.04
2017-07-16T01:23:08.186Z,12.98
2017-07-16T01:24:04.426Z,13.04
2017-07-16T01:25:00.670Z,13.04
2017-07-16T01:25:56.942Z,13.04
2017-07-16T01:26:53.207Z,13.02
2017-07-16T01:27:49.466Z,13.04
2017-07-16T01:28:45.718Z,13.02
2017-07-16T01:29:41.966Z,13.04
2017-07-16T01:30:38.226Z,13.04
2017-07-16T01:31:34.487Z,12.98
2017-07-16T01:32:30.734Z,12.98
2017-07-16T01:33:26.974Z,13.04
2017-07-16T01:34:23.229Z,13.02
2017-07-16T01:35:19.476Z,12.98
2017-07-16T01:36:15.726Z,13.04
2017-07-16T01:37:11.989Z,13.04
2017-07-16T01:38:08.234Z,12.98
2017-07-16T01:39:04.483Z,13.02
2017-07-16T01:40:00.722Z,13.02
2017-07-16T01:40:56.967Z,13.04
2017-07-16T01:41:53.243Z,13.04
2017-07-16T01:42:49.487Z,12.98
2017-07-16T01:43:45.736Z,13.02
2017-07-16T01:44:41.979Z,12.98
2017-07-16T01:45:38.227Z,12.98
2017-07-16T01:46:34.479Z,13.04
2017-07-16T01:47:30.731Z,12.98
2017-07-16T01:48:26.986Z,13.04
2017-07-16T01:49:23.235Z,13.02
2017-07-16T01:50:19.482Z,13.02
2017-07-16T01:51:15.791Z,13.02
2017-07-16T01:52:12.067Z,13.04
2017-07-16T01:53:08.326Z,13.02
2017-07-16T01:54:04.604Z,13.02
2017-07-16T01:55:00.864Z,13.02
2017-07-16T01:55:57.111Z,13.04
2017-07-16T01:56:53.358Z,12.98
2017-07-16T01:57:49.619Z,13.02
2017-07-16T01:58:45.871Z,13.02
2017-07-16T01:59:42.122Z,12.98
2017-07-16T02:00:38.371Z,13.02
2017-07-16T02:01:34.889Z,13.02
2017-07-16T02:02:31.217Z,13.02
2017-07-16T02:03:27.478Z,13.02
2017-07-16T02:04:23.735Z,12.98
2017-07-16T02:05:20.017Z,13.02
2017-07-16T02:06:16.279Z,13.02
2017-07-16T02:07:12.527Z,12.98
2017-07-16T02:08:08.815Z,13.02
2017-07-16T02:09:05.054Z,12.98
2017-07-16T02:10:01.299Z,13.02
2017-07-16T02:10:57.547Z,12.98
2017-07-16T02:11:53.805Z,12.98
2017-07-16T02:12:50.055Z,12.96
2017-07-16T02:13:46.331Z,12.96
2017-07-16T02:14:42.748Z,12.96
2017-07-16T02:15:39.015Z,13.02
2017-07-16T02:16:35.269Z,12.96
2017-07-16T02:17:31.522Z,12.98
2017-07-16T02:18:27.798Z,12.96
2017-07-16T02:19:24.143Z,12.98
2017-07-16T02:20:20.393Z,12.98
2017-07-16T02:21:16.639Z,13.02
2017-07-16T02:22:12.886Z,13.02
2017-07-16T02:23:09.131Z,13.02
2017-07-16T02:24:05.394Z,12.98
2017-07-16T02:25:01.638Z,12.98
2017-07-16T02:25:57.893Z,13.02
2017-07-16T02:26:54.142Z,13.02
2017-07-16T02:27:50.386Z,12.96
2017-07-16T02:28:46.663Z,13.02
2017-07-16T02:29:42.906Z,12.98
2017-07-16T02:30:39.161Z,13.02
2017-07-16T02:31:35.431Z,12.98
2017-07-16T02:32:31.834Z,12.98
2017-07-16T02:33:28.071Z,12.98
2017-07-16T02:34:24.338Z,13.02
2017-07-16T02:35:20.592Z,13.02
2017-07-16T02:36:16.852Z,13.02
2017-07-16T02:37:13.103Z,12.98
2017-07-16T02:38:09.359Z,13.02
2017-07-16T02:39:05.622Z,12.96
2017-07-16T02:40:01.858Z,13.01
2017-07-16T02:40:58.107Z,12.98
2017-07-16T02:41:54.367Z,13.02
2017-07-16T02:42:50.782Z,13.01
2017-07-16T02:43:47.446Z,13.02
2017-07-16T02:44:43.694Z,13.01
2017-07-16T02:45:40.129Z,13.02
2017-07-16T02:46:36.474Z,13.02
2017-07-16T02:47:32.722Z,12.98
2017-07-16T02:48:29.007Z,13.02
2017-07-16T02:49:25.467Z,13.02
2017-07-16T02:50:21.722Z,13.01
2017-07-16T02:51:17.975Z,13.02
2017-07-16T02:52:14.236Z,13.02
2017-07-16T02:53:10.520Z,13.02
2017-07-16T02:54:06.959Z,13.01
2017-07-16T02:55:03.206Z,13.02
2017-07-16T02:55:59.467Z,13.01
2017-07-16T02:56:55.715Z,12.96
2017-07-16T02:57:51.963Z,13.02
2017-07-16T02:58:48.216Z,13.01
2017-07-16T02:59:44.466Z,13.01
2017-07-16T03:00:40.743Z,13.02
2017-07-16T03:01:36.986Z,13.01
2017-07-16T03:02:33.230Z,12.96
2017-07-16T03:03:29.471Z,13.01
2017-07-16T03:04:25.718Z,13.01
2017-07-16T03:05:21.959Z,13.01
2017-07-16T03:06:18.227Z,13.01
2017-07-16T03:07:14.476Z,13.01
2017-07-16T03:08:10.723Z,13.01
2017-07-16T03:09:06.963Z,13.01
2017-07-16T03:10:03.201Z,13.02
2017-07-16T03:10:59.455Z,13.01
2017-07-16T03:11:55.707Z,13.01
2017-07-16T03:12:51.959Z,13.01
2017-07-16T03:13:48.203Z,13.01
2017-07-16T03:14:44.466Z,12.98
2017-07-16T03:15:40.714Z,13.01
2017-07-16T03:16:36.979Z,13.01
2017-07-16T03:17:33.218Z,13.01
2017-07-16T03:18:29.467Z,13.02
2017-07-16T03:19:25.751Z,13.01
2017-07-16T03:20:22.011Z,12.96
2017-07-16T03:21:18.255Z,13.01
2017-07-16T03:22:14.514Z,13.02
2017-07-16T03:23:10.769Z,12.96
2017-07-16T03:24:07.014Z,13.01
2017-07-16T03:25:03.266Z,12.96
2017-07-16T03:25:59.786Z,13.01
2017-07-16T03:26:56.256Z,12.96
2017-07-16T03:27:52.531Z,12.98
2017-07-16T03:28:48.775Z,12.98
2017-07-16T03:29:45.034Z,13.04
2017-07-16T03:30:41.271Z,12.98
2017-07-16T03:31:37.528Z,12.98
2017-07-16T03:32:33.806Z,13.05
2017-07-16T03:33:30.186Z,13.05
2017-07-16T03:34:26.434Z,13.05
2017-07-16T03:35:22.687Z,13.05
2017-07-16T03:36:18.931Z,13.05
2017-07-16T03:37:15.180Z,13.05
2017-07-16T03:38:11.439Z,13.01
2017-07-16T03:39:07.695Z,13.02
2017-07-16T03:40:03.934Z,13.06
2017-07-16T03:41:00.197Z,13.02
2017-07-16T03:41:56.448Z,13.06
2017-07-16T03:42:52.736Z,13.08
2017-07-16T03:43:48.984Z,13.04
2017-07-16T03:44:45.243Z,13.08
2017-07-16T03:45:41.491Z,13.08
2017-07-16T03:46:37.746Z,13.09
2017-07-16T03:47:33.986Z,13.09
2017-07-16T03:48:30.247Z,13.06
2017-07-16T03:49:26.499Z,13.11
2017-07-16T03:50:22.743Z,13.11
2017-07-16T03:51:19.000Z,13.11
2017-07-16T03:52:15.261Z,13.15
2017-07-16T03:53:11.543Z,13.20
2017-07-16T03:54:07.787Z,13.20
2017-07-16T03:55:04.038Z,13.23
2017-07-16T03:56:00.294Z,13.26
2017-07-16T03:56:56.547Z,13.21
2017-07-16T03:57:52.791Z,13.28
2017-07-16T03:58:49.058Z,13.30
2017-07-16T03:59:45.306Z,13.31
2017-07-16T04:00:41.567Z,13.30
2017-07-16T04:01:37.826Z,13.37
2017-07-16T04:02:34.082Z,13.39
2017-07-16T04:03:30.344Z,13.42
2017-07-16T04:04:26.623Z,13.43
2017-07-16T04:05:22.885Z,13.45
2017-07-16T04:06:19.139Z,13.48
2017-07-16T04:07:15.398Z,13.50
2017-07-16T04:08:11.663Z,13.52
2017-07-16T04:09:07.937Z,13.52
2017-07-16T04:10:04.227Z,13.56
2017-07-16T04:11:00.499Z,13.58
2017-07-16T04:11:56.763Z,13.56
2017-07-16T04:12:53.014Z,13.64
2017-07-16T04:13:49.271Z,13.59
2017-07-16T04:14:45.553Z,13.65
2017-07-16T04:15:41.808Z,13.62
2017-07-16T04:16:38.074Z,13.65
2017-07-16T04:17:34.327Z,13.65
2017-07-16T04:18:30.591Z,13.65
2017-07-16T04:19:26.850Z,13.61
2017-07-16T04:20:23.101Z,13.62
2017-07-16T04:21:19.362Z,13.65
2017-07-16T04:22:15.618Z,13.65
2017-07-16T04:23:11.882Z,13.67
2017-07-16T04:24:08.138Z,13.68
2017-07-16T04:25:04.412Z,13.67
2017-07-16T04:26:00.722Z,13.70
2017-07-16T04:26:57.035Z,13.75
2017-07-16T04:27:53.337Z,13.78
2017-07-16T04:28:49.660Z,13.77
2017-07-16T04:29:46.011Z,13.81
2017-07-16T04:30:42.271Z,13.81
2017-07-16T04:31:38.615Z,13.83
2017-07-16T04:32:34.863Z,13.84
2017-07-16T04:33:31.231Z,13.84
2017-07-16T04:34:27.483Z,13.87
2017-07-16T04:35:23.747Z,13.89
2017-07-16T04:36:20.007Z,13.90
2017-07-16T04:37:16.263Z,13.90
2017-07-16T04:38:12.523Z,13.90
2017-07-16T04:39:08.786Z,13.90
2017-07-16T04:40:05.044Z,13.90
2017-07-16T04:41:01.327Z,13.91
2017-07-16T04:41:57.583Z,13.93
2017-07-16T04:42:53.845Z,13.94
2017-07-16T04:43:50.103Z,13.96
2017-07-16T04:44:46.357Z,13.94
2017-07-16T04:45:42.619Z,13.97
2017-07-16T04:46:38.919Z,13.97
2017-07-16T04:47:35.175Z,13.97
2017-07-16T04:48:31.431Z,13.96
2017-07-16T04:49:27.678Z,14.00
2017-07-16T04:50:23.944Z,13.94
2017-07-16T04:51:20.231Z,13.99
2017-07-16T04:52:16.478Z,13.99
2017-07-16T04:53:12.736Z,14.00
2017-07-16T04:54:08.987Z,13.96
2017-07-16T04:55:05.252Z,14.02
2017-07-16T04:56:01.510Z,14.02
2017-07-16T04:56:57.775Z,14.02
2017-07-16T04:57:54.027Z,13.94
2017-07-16T04:58:50.287Z,14.00
2017-07-16T04:59:46.562Z,14.02
2017-07-16T05:00:42.834Z,13.97
2017-07-16T05:01:39.106Z,13.94
2017-07-16T05:02:35.355Z,13.94
2017-07-16T05:03:31.610Z,14.02
2017-07-16T05:04:27.866Z,13.94
2017-07-16T05:05:24.127Z,13.97
2017-07-16T05:06:20.383Z,13.91
2017-07-16T05:07:16.663Z,14.03
2017-07-16T05:08:12.911Z,14.00
2017-07-16T05:09:09.171Z,13.83
2017-07-16T05:10:05.427Z,13.77
2017-07-16T05:11:01.686Z,13.83
2017-07-16T05:11:58.002Z,13.84
2017-07-16T05:12:54.263Z,13.84
2017-07-16T05:13:50.519Z,13.80
2017-07-16T05:14:46.766Z,13.81
2017-07-16T05:15:43.019Z,13.86
2017-07-16T05:16:39.282Z,13.89
2017-07-16T05:17:35.557Z,13.93
2017-07-16T05:18:31.834Z,13.97
2017-07-16T05:19:28.103Z,13.97
2017-07-16T05:20:24.355Z,13.91
2017-07-16T05:21:20.615Z,13.83
2017-07-16T05:22:16.867Z,13.93
2017-07-16T05:23:13.130Z,13.91
2017-07-16T05:24:09.397Z,13.86
2017-07-16T05:25:05.652Z,13.96
2017-07-16T05:26:01.906Z,13.93
2017-07-16T05:26:58.167Z,13.97
2017-07-16T05:27:54.431Z,13.93
2017-07-16T05:28:50.687Z,13.83
2017-07-16T05:29:46.963Z,13.93
2017-07-16T05:30:43.238Z,13.83
2017-07-16T05:31:39.499Z,13.99
2017-07-16T05:32:35.790Z,13.87
2017-07-16T05:33:32.066Z,13.83
2017-07-16T05:34:28.318Z,13.83
2017-07-16T05:35:24.579Z,13.94
2017-07-16T05:36:20.858Z,13.86
2017-07-16T05:37:17.114Z,13.89
2017-07-16T05:38:13.391Z,13.89
2017-07-16T05:39:09.667Z,14.00
2017-07-16T05:40:05.919Z,13.87
2017-07-16T05:41:02.227Z,13.89
2017-07-16T05:41:58.491Z,14.00
2017-07-16T05:42:54.746Z,13.84
2017-07-16T05:43:51.019Z,13.99
2017-07-16T05:44:47.281Z,14.03
2017-07-16T05:45:43.540Z,13.86
2017-07-16T05:46:39.806Z,13.91
2017-07-16T05:47:36.074Z,13.87
2017-07-16T05:48:32.368Z,13.93
2017-07-16T05:49:28.623Z,13.89
2017-07-16T05:50:24.876Z,14.12
2017-07-16T05:51:21.150Z,13.90
2017-07-16T05:52:17.427Z,14.13
2017-07-16T05:53:13.675Z,14.13
2017-07-16T05:54:09.950Z,14.11
2017-07-16T05:55:06.198Z,14.09
2017-07-16T05:56:02.446Z,13.94
2017-07-16T05:56:58.731Z,14.08
2017-07-16T05:57:54.986Z,13.90
2017-07-16T05:58:51.242Z,14.09
2017-07-16T05:59:47.523Z,13.89
2017-07-16T06:00:43.788Z,13.90
2017-07-16T06:01:40.067Z,13.89
2017-07-16T06:02:36.343Z,14.05
2017-07-16T06:03:32.612Z,14.06
2017-07-16T06:04:28.863Z,14.08
2017-07-16T06:05:25.137Z,13.94
2017-07-16T06:06:21.395Z,13.90
2017-07-16T06:07:17.655Z,14.15
2017-07-16T06:08:13.904Z,14.11
2017-07-16T06:09:10.174Z,13.91
2017-07-16T06:10:06.455Z,13.91
2017-07-16T06:11:02.713Z,13.96
2017-07-16T06:11:58.972Z,13.90
2017-07-16T06:12:55.226Z,14.13
2017-07-16T06:13:51.491Z,13.94
2017-07-16T06:14:47.759Z,14.09
2017-07-16T06:15:44.031Z,14.09
2017-07-16T06:16:40.302Z,14.13
2017-07-16T06:17:36.562Z,13.96
2017-07-16T06:18:32.828Z,14.12
2017-07-16T06:19:29.099Z,13.90
2017-07-16T06:20:25.415Z,13.93
2017-07-16T06:21:21.683Z,13.96
2017-07-16T06:22:17.953Z,13.96
2017-07-16T06:23:14.207Z,14.13
2017-07-16T06:24:10.466Z,13.94
2017-07-16T06:25:06.730Z,13.91
2017-07-16T06:26:02.996Z,14.08
2017-07-16T06:26:59.266Z,13.96
2017-07-16T06:27:55.542Z,13.94
2017-07-16T06:28:51.796Z,13.91
2017-07-16T06:29:48.059Z,14.05
2017-07-16T06:30:44.306Z,13.96
2017-07-16T06:31:40.579Z,14.08
2017-07-16T06:32:36.830Z,13.91
2017-07-16T06:33:33.086Z,14.12
2017-07-16T06:34:29.345Z,14.12
2017-07-16T06:35:25.604Z,14.12
2017-07-16T06:36:21.865Z,14.13
2017-07-16T06:37:18.119Z,14.13
2017-07-16T06:38:14.400Z,13.91
2017-07-16T06:39:10.655Z,13.97
2017-07-16T06:40:06.911Z,13.96
2017-07-16T06:41:03.187Z,13.93
2017-07-16T06:41:59.450Z,13.96
2017-07-16T06:42:55.710Z,13.96
2017-07-16T06:43:51.967Z,13.91
2017-07-16T06:44:48.215Z,13.96
2017-07-16T06:45:44.482Z,13.91
2017-07-16T06:46:40.746Z,13.96
2017-07-16T06:47:37.003Z,13.96
2017-07-16T06:48:33.254Z,14.16
2017-07-16T06:49:29.513Z,13.96
2017-07-16T06:50:25.763Z,13.96
2017-07-16T06:51:22.015Z,14.18
2017-07-16T06:52:18.291Z,13.93
2017-07-16T06:53:14.539Z,13.94
2017-07-16T06:54:10.802Z,13.93
2017-07-16T06:55:07.070Z,13.96
2017-07-16T06:56:03.338Z,13.90
2017-07-16T06:56:59.603Z,13.90
2017-07-16T06:57:55.893Z,13.91
2017-07-16T06:58:52.143Z,13.94
2017-07-16T06:59:48.395Z,13.94
2017-07-16T07:00:44.651Z,13.94
2017-07-16T07:01:40.907Z,13.94
2017-07-16T07:02:37.178Z,13.94
2017-07-16T07:03:33.442Z,13.94
2017-07-16T07:04:29.706Z,13.91
2017-07-16T07:05:25.983Z,13.90
2017-07-16T07:06:22.238Z,13.90
2017-07-16T07:07:18.519Z,13.94
2017-07-16T07:08:14.813Z,13.91
2017-07-16T07:09:11.074Z,13.91
2017-07-16T07:10:07.338Z,13.90
2017-07-16T07:11:03.596Z,13.94
2017-07-16T07:11:59.855Z,13.90
2017-07-16T07:12:56.142Z,13.94
2017-07-16T07:13:52.396Z,14.18
2017-07-16T07:14:48.647Z,14.24
2017-07-16T07:15:44.905Z,13.90
2017-07-16T07:16:41.158Z,13.94
2017-07-16T07:17:37.427Z,13.94
2017-07-16T07:18:33.697Z,13.91
2017-07-16T07:19:29.938Z,13.94
2017-07-16T07:20:26.206Z,13.91
2017-07-16T07:21:22.467Z,13.94
2017-07-16T07:22:18.819Z,13.97
2017-07-16T07:23:15.099Z,13.94
2017-07-16T07:24:11.418Z,13.94
2017-07-16T07:25:07.722Z,13.94
2017-07-16T07:26:03.978Z,13.94
2017-07-16T07:27:00.234Z,13.96
2017-07-16T07:27:56.487Z,13.94
2017-07-16T07:28:52.751Z,13.91
2017-07-16T07:29:49.280Z,13.94
2017-07-16T07:30:45.539Z,13.94
2017-07-16T07:31:41.794Z,13.94
2017-07-16T07:32:38.051Z,13.94
2017-07-16T07:33:34.299Z,13.93
2017-07-16T07:34:30.569Z,13.90
2017-07-16T07:35:26.820Z,14.22
2017-07-16T07:36:23.074Z,14.22
2017-07-16T07:37:19.343Z,13.94
2017-07-16T07:38:15.607Z,13.91
2017-07-16T07:39:11.871Z,13.93
2017-07-16T07:40:08.126Z,13.90
2017-07-16T07:41:04.385Z,14.15
2017-07-16T07:42:00.639Z,13.90
2017-07-16T07:42:56.880Z,13.96
2017-07-16T07:43:53.135Z,14.16
2017-07-16T07:44:49.394Z,14.16
2017-07-16T07:45:45.644Z,13.94
2017-07-16T07:46:41.910Z,13.94
2017-07-16T07:47:38.171Z,14.19
2017-07-16T07:48:34.423Z,13.90
2017-07-16T07:49:30.688Z,13.93
2017-07-16T07:50:26.947Z,13.90
2017-07-16T07:51:23.203Z,13.90
2017-07-16T07:52:19.463Z,13.90
2017-07-16T07:53:15.795Z,13.90
2017-07-16T07:54:12.047Z,13.94
2017-07-16T07:55:08.308Z,13.94
2017-07-16T07:56:04.568Z,13.90
2017-07-16T07:57:00.823Z,13.89
2017-07-16T07:57:57.078Z,13.90
2017-07-16T07:58:53.327Z,14.37
2017-07-16T07:59:49.575Z,13.93
2017-07-16T08:00:45.838Z,13.89
2017-07-16T08:01:42.090Z,13.89
2017-07-16T08:02:38.342Z,13.93
2017-07-16T08:03:34.588Z,13.91
2017-07-16T08:04:30.859Z,13.91
2017-07-16T08:05:27.129Z,13.89
2017-07-16T08:06:23.403Z,13.87
2017-07-16T08:07:19.665Z,13.89
2017-07-16T08:08:15.932Z,13.87
2017-07-16T08:09:12.191Z,13.87
2017-07-16T08:10:08.442Z,13.91
2017-07-16T08:11:04.699Z,13.86
2017-07-16T08:12:00.957Z,14.30
2017-07-16T08:12:57.219Z,13.87
2017-07-16T08:13:53.463Z,13.91
2017-07-16T08:14:49.729Z,13.89
2017-07-16T08:15:45.995Z,14.25
2017-07-16T08:16:42.264Z,13.89
2017-07-16T08:17:38.528Z,13.91
2017-07-16T08:18:34.788Z,13.89
2017-07-16T08:19:31.043Z,13.91
2017-07-16T08:20:27.299Z,13.89
2017-07-16T08:21:23.566Z,14.28
2017-07-16T08:22:19.824Z,13.91
2017-07-16T08:23:16.099Z,13.87
2017-07-16T08:24:12.342Z,13.91
2017-07-16T08:25:08.602Z,13.91
2017-07-16T08:26:04.847Z,13.87
2017-07-16T08:27:01.111Z,13.87
2017-07-16T08:27:57.374Z,13.87
2017-07-16T08:28:53.636Z,13.87
2017-07-16T08:29:49.890Z,13.91
2017-07-16T08:30:46.143Z,13.87
2017-07-16T08:31:42.407Z,13.90
2017-07-16T08:32:38.678Z,13.90
2017-07-16T08:33:34.946Z,13.86
2017-07-16T08:34:31.207Z,13.91
2017-07-16T08:35:27.463Z,13.90
2017-07-16T08:36:23.715Z,13.87
2017-07-16T08:37:20.003Z,13.86
2017-07-16T08:38:16.242Z,13.91
2017-07-16T08:39:12.511Z,13.90
2017-07-16T08:40:08.809Z,13.90
2017-07-16T08:41:05.072Z,13.90
2017-07-16T08:42:01.359Z,13.87
2017-07-16T08:42:57.612Z,13.86
2017-07-16T08:43:53.984Z,13.86
2017-07-16T08:44:50.226Z,13.86
2017-07-16T08:45:46.471Z,13.90
2017-07-16T08:46:42.734Z,13.89
2017-07-16T08:47:38.991Z,13.86
2017-07-16T08:48:35.255Z,13.86
2017-07-16T08:49:31.512Z,13.89
2017-07-16T08:50:27.782Z,13.89
2017-07-16T08:51:24.031Z,13.89
2017-07-16T08:52:20.294Z,13.90
2017-07-16T08:53:16.539Z,13.86
2017-07-16T08:54:12.787Z,13.86
2017-07-16T08:55:09.046Z,13.90
2017-07-16T08:56:05.299Z,13.87
2017-07-16T08:57:01.670Z,13.90
2017-07-16T08:57:58.004Z,13.93
2017-07-16T08:58:54.259Z,13.89
2017-07-16T08:59:50.774Z,13.89
2017-07-16T09:00:47.070Z,13.89
2017-07-16T09:01:43.320Z,13.93
2017-07-16T09:02:39.598Z,13.93
2017-07-16T09:03:35.902Z,13.93
2017-07-16T09:04:32.150Z,13.89
2017-07-16T09:05:28.403Z,13.89
2017-07-16T09:06:24.876Z,13.93
2017-07-16T09:07:21.609Z,13.93
2017-07-16T09:08:18.149Z,13.90
2017-07-16T09:09:14.408Z,13.94
2017-07-16T09:10:10.675Z,13.94
2017-07-16T09:11:06.930Z,13.93
2017-07-16T09:12:03.186Z,13.93
2017-07-16T09:12:59.439Z,13.89
2017-07-16T09:13:55.706Z,13.91
2017-07-16T09:14:51.951Z,13.89
2017-07-16T09:15:48.259Z,13.89
2017-07-16T09:16:44.509Z,13.89
2017-07-16T09:17:40.760Z,13.89
2017-07-16T09:18:37.026Z,13.87
2017-07-16T09:19:33.283Z,13.91
2017-07-16T09:20:29.523Z,13.91
2017-07-16T09:21:25.779Z,13.91
2017-07-16T09:22:22.054Z,13.91
2017-07-16T09:23:18.418Z,13.91
2017-07-16T09:24:14.674Z,13.89
2017-07-16T09:25:12.717Z,13.89
2017-07-16T09:26:08.971Z,13.89
2017-07-16T09:27:05.322Z,13.91
2017-07-16T09:28:01.611Z,13.93
2017-07-16T09:28:57.875Z,13.91
2017-07-16T09:29:55.167Z,13.91
2017-07-16T09:30:51.449Z,13.91
2017-07-16T09:31:47.718Z,13.87
2017-07-16T09:32:43.982Z,13.87
2017-07-16T09:33:40.223Z,13.87
2017-07-16T09:34:36.486Z,13.90
2017-07-16T09:35:32.743Z,13.90
2017-07-16T09:36:28.994Z,13.90
2017-07-16T09:37:25.243Z,13.84
2017-07-16T09:38:21.499Z,13.90
2017-07-16T09:39:17.784Z,13.90
2017-07-16T09:40:14.063Z,13.90
2017-07-16T09:41:12.899Z,13.84
2017-07-16T09:42:09.175Z,13.84
2017-07-16T09:43:05.538Z,13.90
2017-07-16T09:44:01.822Z,13.90
2017-07-16T09:44:58.187Z,13.90
2017-07-16T09:45:54.451Z,13.90
2017-07-16T09:46:50.707Z,13.90
2017-07-16T09:47:46.955Z,13.89
2017-07-16T09:48:43.226Z,13.89
2017-07-16T09:49:39.539Z,13.84
2017-07-16T09:50:35.804Z,13.84
2017-07-16T09:51:32.062Z,13.84
2017-07-16T09:52:28.314Z,13.90
2017-07-16T09:53:24.563Z,13.84
2017-07-16T09:54:20.810Z,13.84
2017-07-16T09:55:18.939Z,13.84
2017-07-16T09:56:15.188Z,13.90
2017-07-16T09:57:11.455Z,13.90
2017-07-16T09:58:08.699Z,13.90
2017-07-16T09:59:04.971Z,13.89
2017-07-16T10:00:01.251Z,13.84
2017-07-16T10:00:57.652Z,13.90
2017-07-16T10:01:53.919Z,13.90
2017-07-16T10:02:50.186Z,13.84
2017-07-16T10:03:46.443Z,13.90
2017-07-16T10:04:42.688Z,13.84
2017-07-16T10:05:38.961Z,13.90
2017-07-16T10:06:35.226Z,13.90
2017-07-16T10:07:31.765Z,13.84
2017-07-16T10:08:28.799Z,13.87
2017-07-16T10:09:25.114Z,13.87
2017-07-16T10:10:21.382Z,13.90
2017-07-16T10:11:17.635Z,13.90
2017-07-16T10:12:13.899Z,13.84
2017-07-16T10:13:10.167Z,13.84
2017-07-16T10:14:09.459Z,13.90
2017-07-16T10:15:05.707Z,13.89
2017-07-16T10:16:01.968Z,13.84
2017-07-16T10:16:58.243Z,13.83
2017-07-16T10:17:56.423Z,13.87
2017-07-16T10:18:52.680Z,13.81
2017-07-16T10:19:48.955Z,13.81
2017-07-16T10:20:45.219Z,13.81
2017-07-16T10:21:41.467Z,13.84
2017-07-16T10:22:37.740Z,13.84
2017-07-16T10:23:33.981Z,13.81
2017-07-16T10:24:30.239Z,13.81
2017-07-16T10:25:26.497Z,13.78
2017-07-16T10:26:22.779Z,13.77
2017-07-16T10:27:19.095Z,13.83
2017-07-16T10:28:15.355Z,13.78
2017-07-16T10:29:11.615Z,13.81
2017-07-16T10:30:07.867Z,13.80
2017-07-16T10:31:04.119Z,13.80
2017-07-16T10:32:00.382Z,13.80
2017-07-16T10:32:56.631Z,13.75
2017-07-16T10:33:53.983Z,13.80
2017-07-16T10:34:50.246Z,13.78
2017-07-16T10:35:46.505Z,13.75
2017-07-16T10:36:42.791Z,13.75
2017-07-16T10:37:39.067Z,13.78
2017-07-16T10:38:35.331Z,13.80
2017-07-16T10:39:31.587Z,13.75
2017-07-16T10:40:27.831Z,13.78
2017-07-16T10:41:24.131Z,13.80
2017-07-16T10:42:20.391Z,13.80
2017-07-16T10:43:16.639Z,13.81
2017-07-16T10:44:12.907Z,13.77
2017-07-16T10:45:09.146Z,13.81
2017-07-16T10:46:05.415Z,13.81
2017-07-16T10:47:01.663Z,13.81
2017-07-16T10:47:57.948Z,13.78
2017-07-16T10:48:54.206Z,13.81
2017-07-16T10:49:50.442Z,13.83
2017-07-16T10:50:46.702Z,13.80
2017-07-16T10:51:42.967Z,13.83
2017-07-16T10:52:39.395Z,13.83
2017-07-16T10:53:35.866Z,13.83
2017-07-16T10:54:32.340Z,13.83
2017-07-16T10:55:30.118Z,13.84
2017-07-16T10:56:27.919Z,14.30
2017-07-16T10:57:24.187Z,13.84
2017-07-16T10:58:20.556Z,13.87
2017-07-16T10:59:16.996Z,13.81
2017-07-16T11:00:13.322Z,13.84
2017-07-16T11:01:09.597Z,13.81
2017-07-16T11:02:05.871Z,13.84
2017-07-16T11:03:02.133Z,13.86
2017-07-16T11:03:58.423Z,13.81
2017-07-16T11:04:54.684Z,13.84
2017-07-16T11:05:50.951Z,13.83
2017-07-16T11:06:47.209Z,13.84
2017-07-16T11:07:43.472Z,13.84
2017-07-16T11:08:39.735Z,13.84
2017-07-16T11:09:36.002Z,13.84
2017-07-16T11:10:32.278Z,13.81
2017-07-16T11:11:28.567Z,13.80
2017-07-16T11:12:24.818Z,13.84
2017-07-16T11:13:21.079Z,13.84
2017-07-16T11:14:17.343Z,13.80
2017-07-16T11:15:13.625Z,13.83
2017-07-16T11:16:09.882Z,13.83
2017-07-16T11:17:06.134Z,13.78
2017-07-16T11:18:02.378Z,13.78
2017-07-16T11:18:58.630Z,13.84
2017-07-16T11:19:54.906Z,13.83
2017-07-16T11:20:51.210Z,13.83
2017-07-16T11:21:47.753Z,14.03
2017-07-16T11:22:44.975Z,13.84
2017-07-16T11:23:41.227Z,13.84
2017-07-16T11:24:37.494Z,13.84
2017-07-16T11:25:33.770Z,13.81
2017-07-16T11:26:30.039Z,13.81
2017-07-16T11:27:26.307Z,13.81
2017-07-16T11:28:22.586Z,13.89
2017-07-16T11:29:18.859Z,13.83
2017-07-16T11:30:15.122Z,13.83
2017-07-16T11:31:11.383Z,13.83
2017-07-16T11:32:07.638Z,13.89
2017-07-16T11:33:03.907Z,13.89
2017-07-16T11:34:00.631Z,13.83
2017-07-16T11:34:56.887Z,13.89
2017-07-16T11:35:53.166Z,13.89
2017-07-16T11:36:49.608Z,13.83
2017-07-16T11:37:45.870Z,13.90
2017-07-16T11:38:42.131Z,13.89
2017-07-16T11:39:38.386Z,13.84
2017-07-16T11:40:34.644Z,13.89
2017-07-16T11:41:30.914Z,13.89
2017-07-16T11:42:27.165Z,13.89
2017-07-16T11:43:23.439Z,13.89
2017-07-16T11:44:19.697Z,13.83
2017-07-16T11:45:15.968Z,13.89
2017-07-16T11:46:12.218Z,13.89
2017-07-16T11:47:08.479Z,13.87
2017-07-16T11:48:04.746Z,13.87
2017-07-16T11:49:01.014Z,13.87
2017-07-16T11:49:57.275Z,13.87
2017-07-16T11:50:53.547Z,13.87
2017-07-16T11:51:49.811Z,13.87
2017-07-16T11:52:46.092Z,13.87
2017-07-16T11:53:42.342Z,13.89
2017-07-16T11:54:38.590Z,13.83
2017-07-16T11:55:34.846Z,13.89
2017-07-16T11:56:31.103Z,13.83
2017-07-16T11:57:27.371Z,13.89
2017-07-16T11:58:23.628Z,13.89
2017-07-16T11:59:19.907Z,13.83
2017-07-16T12:00:16.187Z,13.83
2017-07-16T12:01:12.451Z,13.83
2017-07-16T12:02:08.704Z,13.89
2017-07-16T12:03:04.990Z,13.89
2017-07-16T12:04:01.443Z,13.83
2017-07-16T12:04:58.047Z,13.89